sensor_id;sensor_type;location;lat;lon;timestamp;P1;durP1;ratioP1;P2;durP2;ratioP2
43457;SDS011;29046;54.184;18.680;2023-12-14T00:02:02;27.52;;;5.97;;
43457;SDS011;29046;54.184;18.680;2023-12-14T00:04:30;25.70;;;6.03;;
43457;SDS011;29046;54.184;18.680;2023-12-14T00:06:58;32.67;;;5.10;;
43457;SDS011;29046;54.184;18.680;2023-12-14T00:09:25;26.45;;;4.72;;
43457;SDS011;29046;54.184;18.680;2023-12-14T00:11:53;49.33;;;5.57;;
43457;SDS011;29046;54.184;18.680;2023-12-14T00:14:21;22.58;;;4.55;;
43457;SDS011;29046;54.184;18.680;2023-12-14T00:16:48;36.38;;;5.05;;
43457;SDS011;29046;54.184;18.680;2023-12-14T00:19:16;32.85;;;4.63;;
43457;SDS011;29046;54.184;18.680;2023-12-14T00:21:44;22.15;;;4.65;;
43457;SDS011;29046;54.184;18.680;2023-12-14T00:24:12;39.78;;;5.65;;
43457;SDS011;29046;54.184;18.680;2023-12-14T00:26:40;56.25;;;6.35;;
43457;SDS011;29046;54.184;18.680;2023-12-14T00:29:07;38.08;;;5.68;;
43457;SDS011;29046;54.184;18.680;2023-12-14T00:31:35;30.63;;;5.32;;
43457;SDS011;29046;54.184;18.680;2023-12-14T00:34:02;73.95;;;6.30;;
43457;SDS011;29046;54.184;18.680;2023-12-14T00:36:30;24.95;;;5.30;;
43457;SDS011;29046;54.184;18.680;2023-12-14T00:38:58;35.30;;;5.80;;
43457;SDS011;29046;54.184;18.680;2023-12-14T00:41:25;42.33;;;6.00;;
43457;SDS011;29046;54.184;18.680;2023-12-14T00:43:53;30.33;;;5.70;;
43457;SDS011;29046;54.184;18.680;2023-12-14T00:46:21;19.55;;;6.72;;
43457;SDS011;29046;54.184;18.680;2023-12-14T00:48:49;31.05;;;7.32;;
43457;SDS011;29046;54.184;18.680;2023-12-14T00:51:16;12.88;;;4.97;;
43457;SDS011;29046;54.184;18.680;2023-12-14T00:53:44;16.58;;;8.75;;
43457;SDS011;29046;54.184;18.680;2023-12-14T00:56:12;12.30;;;8.02;;
43457;SDS011;29046;54.184;18.680;2023-12-14T00:58:39;10.23;;;6.57;;
43457;SDS011;29046;54.184;18.680;2023-12-14T01:01:07;14.35;;;7.95;;
43457;SDS011;29046;54.184;18.680;2023-12-14T01:03:35;13.32;;;6.90;;
43457;SDS011;29046;54.184;18.680;2023-12-14T01:06:03;24.10;;;9.85;;
43457;SDS011;29046;54.184;18.680;2023-12-14T01:08:30;19.10;;;8.27;;
43457;SDS011;29046;54.184;18.680;2023-12-14T01:10:58;20.85;;;9.43;;
43457;SDS011;29046;54.184;18.680;2023-12-14T01:13:25;16.92;;;7.95;;
43457;SDS011;29046;54.184;18.680;2023-12-14T01:15:53;20.17;;;9.18;;
43457;SDS011;29046;54.184;18.680;2023-12-14T01:18:21;19.00;;;7.70;;
43457;SDS011;29046;54.184;18.680;2023-12-14T01:20:49;19.38;;;8.98;;
43457;SDS011;29046;54.184;18.680;2023-12-14T01:23:17;17.13;;;8.40;;
43457;SDS011;29046;54.184;18.680;2023-12-14T01:25:44;13.40;;;7.15;;
43457;SDS011;29046;54.184;18.680;2023-12-14T01:28:12;16.83;;;9.35;;
43457;SDS011;29046;54.184;18.680;2023-12-14T01:30:40;13.68;;;8.40;;
43457;SDS011;29046;54.184;18.680;2023-12-14T01:33:08;17.23;;;7.50;;
43457;SDS011;29046;54.184;18.680;2023-12-14T01:35:36;9.43;;;4.15;;
43457;SDS011;29046;54.184;18.680;2023-12-14T01:38:04;20.35;;;10.95;;
43457;SDS011;29046;54.184;18.680;2023-12-14T01:40:32;15.48;;;6.63;;
43457;SDS011;29046;54.184;18.680;2023-12-14T01:43:09;18.90;;;9.80;;
43457;SDS011;29046;54.184;18.680;2023-12-14T01:45:37;16.77;;;8.60;;
43457;SDS011;29046;54.184;18.680;2023-12-14T01:48:05;7.22;;;3.50;;
43457;SDS011;29046;54.184;18.680;2023-12-14T01:50:33;15.15;;;7.70;;
43457;SDS011;29046;54.184;18.680;2023-12-14T01:53:00;17.58;;;8.10;;
43457;SDS011;29046;54.184;18.680;2023-12-14T01:55:28;14.85;;;7.68;;
43457;SDS011;29046;54.184;18.680;2023-12-14T01:57:56;11.50;;;6.30;;
43457;SDS011;29046;54.184;18.680;2023-12-14T02:00:29;14.27;;;7.88;;
43457;SDS011;29046;54.184;18.680;2023-12-14T02:02:59;13.25;;;7.55;;
43457;SDS011;29046;54.184;18.680;2023-12-14T02:05:27;14.70;;;7.43;;
43457;SDS011;29046;54.184;18.680;2023-12-14T02:07:54;18.27;;;8.55;;
43457;SDS011;29046;54.184;18.680;2023-12-14T02:10:23;8.43;;;5.20;;
43457;SDS011;29046;54.184;18.680;2023-12-14T02:12:51;14.55;;;8.35;;
43457;SDS011;29046;54.184;18.680;2023-12-14T02:15:19;15.38;;;8.27;;
43457;SDS011;29046;54.184;18.680;2023-12-14T02:17:47;14.07;;;8.23;;
43457;SDS011;29046;54.184;18.680;2023-12-14T02:20:14;10.95;;;5.72;;
43457;SDS011;29046;54.184;18.680;2023-12-14T02:22:48;15.15;;;8.48;;
43457;SDS011;29046;54.184;18.680;2023-12-14T02:25:19;15.55;;;8.52;;
43457;SDS011;29046;54.184;18.680;2023-12-14T02:27:47;12.95;;;6.80;;
43457;SDS011;29046;54.184;18.680;2023-12-14T02:30:16;14.80;;;8.73;;
43457;SDS011;29046;54.184;18.680;2023-12-14T02:32:43;19.60;;;9.77;;
43457;SDS011;29046;54.184;18.680;2023-12-14T02:35:11;15.13;;;7.95;;
43457;SDS011;29046;54.184;18.680;2023-12-14T02:37:39;17.88;;;8.25;;
43457;SDS011;29046;54.184;18.680;2023-12-14T02:40:10;14.52;;;7.80;;
43457;SDS011;29046;54.184;18.680;2023-12-14T02:42:38;14.00;;;7.63;;
43457;SDS011;29046;54.184;18.680;2023-12-14T02:45:06;15.80;;;6.75;;
43457;SDS011;29046;54.184;18.680;2023-12-14T02:47:34;15.43;;;7.70;;
43457;SDS011;29046;54.184;18.680;2023-12-14T02:50:02;12.73;;;6.00;;
43457;SDS011;29046;54.184;18.680;2023-12-14T02:52:30;11.63;;;6.68;;
43457;SDS011;29046;54.184;18.680;2023-12-14T02:54:58;14.70;;;7.53;;
43457;SDS011;29046;54.184;18.680;2023-12-14T02:57:26;9.63;;;5.10;;
43457;SDS011;29046;54.184;18.680;2023-12-14T02:59:53;15.98;;;7.60;;
43457;SDS011;29046;54.184;18.680;2023-12-14T03:02:21;12.23;;;5.95;;
43457;SDS011;29046;54.184;18.680;2023-12-14T03:04:49;14.45;;;7.20;;
43457;SDS011;29046;54.184;18.680;2023-12-14T03:07:17;9.10;;;4.53;;
43457;SDS011;29046;54.184;18.680;2023-12-14T03:09:45;10.48;;;6.22;;
43457;SDS011;29046;54.184;18.680;2023-12-14T03:12:13;11.98;;;5.80;;
43457;SDS011;29046;54.184;18.680;2023-12-14T03:14:41;9.23;;;4.75;;
43457;SDS011;29046;54.184;18.680;2023-12-14T03:17:08;10.98;;;6.25;;
43457;SDS011;29046;54.184;18.680;2023-12-14T03:19:40;12.30;;;7.38;;
43457;SDS011;29046;54.184;18.680;2023-12-14T03:22:08;8.50;;;5.18;;
43457;SDS011;29046;54.184;18.680;2023-12-14T03:24:36;6.47;;;3.40;;
43457;SDS011;29046;54.184;18.680;2023-12-14T03:27:04;7.20;;;3.50;;
43457;SDS011;29046;54.184;18.680;2023-12-14T03:29:32;17.15;;;5.82;;
43457;SDS011;29046;54.184;18.680;2023-12-14T03:31:59;12.15;;;5.68;;
43457;SDS011;29046;54.184;18.680;2023-12-14T03:34:27;9.45;;;4.47;;
43457;SDS011;29046;54.184;18.680;2023-12-14T03:36:55;11.05;;;5.05;;
43457;SDS011;29046;54.184;18.680;2023-12-14T03:39:23;10.57;;;5.38;;
43457;SDS011;29046;54.184;18.680;2023-12-14T03:41:50;10.20;;;6.07;;
43457;SDS011;29046;54.184;18.680;2023-12-14T03:44:18;9.32;;;5.03;;
43457;SDS011;29046;54.184;18.680;2023-12-14T03:46:46;8.65;;;4.30;;
43457;SDS011;29046;54.184;18.680;2023-12-14T03:49:14;8.57;;;4.15;;
43457;SDS011;29046;54.184;18.680;2023-12-14T03:51:42;10.13;;;4.28;;
43457;SDS011;29046;54.184;18.680;2023-12-14T03:54:09;7.05;;;4.28;;
43457;SDS011;29046;54.184;18.680;2023-12-14T03:56:37;6.05;;;3.65;;
43457;SDS011;29046;54.184;18.680;2023-12-14T03:59:05;6.43;;;4.07;;
43457;SDS011;29046;54.184;18.680;2023-12-14T04:01:32;6.20;;;2.20;;
43457;SDS011;29046;54.184;18.680;2023-12-14T04:04:00;7.57;;;4.25;;
43457;SDS011;29046;54.184;18.680;2023-12-14T04:06:28;9.70;;;4.07;;
43457;SDS011;29046;54.184;18.680;2023-12-14T04:08:59;9.02;;;3.92;;
43457;SDS011;29046;54.184;18.680;2023-12-14T04:11:26;9.88;;;4.35;;
43457;SDS011;29046;54.184;18.680;2023-12-14T04:13:54;8.57;;;4.10;;
43457;SDS011;29046;54.184;18.680;2023-12-14T04:16:22;6.35;;;3.88;;
43457;SDS011;29046;54.184;18.680;2023-12-14T04:18:52;7.80;;;4.05;;
43457;SDS011;29046;54.184;18.680;2023-12-14T04:21:19;5.07;;;3.35;;
43457;SDS011;29046;54.184;18.680;2023-12-14T04:23:47;8.88;;;4.47;;
43457;SDS011;29046;54.184;18.680;2023-12-14T04:26:15;7.60;;;3.75;;
43457;SDS011;29046;54.184;18.680;2023-12-14T04:28:43;6.93;;;3.80;;
43457;SDS011;29046;54.184;18.680;2023-12-14T04:31:12;7.82;;;4.13;;
43457;SDS011;29046;54.184;18.680;2023-12-14T04:33:40;6.28;;;3.25;;
43457;SDS011;29046;54.184;18.680;2023-12-14T04:36:10;9.38;;;4.22;;
43457;SDS011;29046;54.184;18.680;2023-12-14T04:38:38;7.50;;;3.45;;
43457;SDS011;29046;54.184;18.680;2023-12-14T04:41:06;6.63;;;3.60;;
43457;SDS011;29046;54.184;18.680;2023-12-14T04:43:34;9.45;;;4.35;;
43457;SDS011;29046;54.184;18.680;2023-12-14T04:46:01;7.88;;;3.88;;
43457;SDS011;29046;54.184;18.680;2023-12-14T04:48:29;5.38;;;3.22;;
43457;SDS011;29046;54.184;18.680;2023-12-14T04:50:57;9.07;;;4.57;;
43457;SDS011;29046;54.184;18.680;2023-12-14T04:53:25;7.22;;;3.60;;
43457;SDS011;29046;54.184;18.680;2023-12-14T04:55:52;4.45;;;2.55;;
43457;SDS011;29046;54.184;18.680;2023-12-14T04:58:20;7.28;;;3.15;;
43457;SDS011;29046;54.184;18.680;2023-12-14T05:00:48;7.07;;;2.95;;
43457;SDS011;29046;54.184;18.680;2023-12-14T05:03:16;6.78;;;3.78;;
43457;SDS011;29046;54.184;18.680;2023-12-14T05:05:43;7.03;;;3.30;;
43457;SDS011;29046;54.184;18.680;2023-12-14T05:08:11;7.00;;;3.33;;
43457;SDS011;29046;54.184;18.680;2023-12-14T05:10:39;6.00;;;3.58;;
43457;SDS011;29046;54.184;18.680;2023-12-14T05:13:07;7.68;;;3.95;;
43457;SDS011;29046;54.184;18.680;2023-12-14T05:15:35;6.05;;;3.15;;
43457;SDS011;29046;54.184;18.680;2023-12-14T05:18:02;7.50;;;4.03;;
43457;SDS011;29046;54.184;18.680;2023-12-14T05:20:30;8.50;;;3.47;;
43457;SDS011;29046;54.184;18.680;2023-12-14T05:22:58;7.45;;;3.60;;
43457;SDS011;29046;54.184;18.680;2023-12-14T05:25:25;6.93;;;4.05;;
43457;SDS011;29046;54.184;18.680;2023-12-14T05:27:53;5.82;;;3.42;;
43457;SDS011;29046;54.184;18.680;2023-12-14T05:30:21;6.25;;;3.30;;
43457;SDS011;29046;54.184;18.680;2023-12-14T05:32:48;5.38;;;3.03;;
43457;SDS011;29046;54.184;18.680;2023-12-14T05:35:16;7.85;;;4.05;;
43457;SDS011;29046;54.184;18.680;2023-12-14T05:37:44;5.25;;;2.92;;
43457;SDS011;29046;54.184;18.680;2023-12-14T05:40:11;9.80;;;4.57;;
43457;SDS011;29046;54.184;18.680;2023-12-14T05:42:39;7.68;;;3.60;;
43457;SDS011;29046;54.184;18.680;2023-12-14T05:45:07;8.68;;;3.67;;
43457;SDS011;29046;54.184;18.680;2023-12-14T05:47:38;9.98;;;3.95;;
43457;SDS011;29046;54.184;18.680;2023-12-14T05:50:08;8.80;;;4.28;;
43457;SDS011;29046;54.184;18.680;2023-12-14T05:52:37;8.65;;;3.55;;
43457;SDS011;29046;54.184;18.680;2023-12-14T05:55:06;8.82;;;3.42;;
43457;SDS011;29046;54.184;18.680;2023-12-14T05:57:34;9.75;;;4.57;;
43457;SDS011;29046;54.184;18.680;2023-12-14T06:00:03;6.70;;;3.70;;
43457;SDS011;29046;54.184;18.680;2023-12-14T06:02:32;6.60;;;3.03;;
43457;SDS011;29046;54.184;18.680;2023-12-14T06:05:00;10.13;;;4.32;;
43457;SDS011;29046;54.184;18.680;2023-12-14T06:07:28;5.82;;;3.40;;
43457;SDS011;29046;54.184;18.680;2023-12-14T06:09:56;11.43;;;3.95;;
43457;SDS011;29046;54.184;18.680;2023-12-14T06:12:23;7.28;;;3.35;;
43457;SDS011;29046;54.184;18.680;2023-12-14T06:14:51;8.30;;;3.67;;
43457;SDS011;29046;54.184;18.680;2023-12-14T06:17:19;8.43;;;4.25;;
43457;SDS011;29046;54.184;18.680;2023-12-14T06:19:46;8.85;;;3.88;;
43457;SDS011;29046;54.184;18.680;2023-12-14T06:22:14;10.88;;;4.30;;
43457;SDS011;29046;54.184;18.680;2023-12-14T06:24:42;8.75;;;3.75;;
43457;SDS011;29046;54.184;18.680;2023-12-14T06:27:09;7.53;;;3.45;;
43457;SDS011;29046;54.184;18.680;2023-12-14T06:29:37;5.75;;;3.13;;
43457;SDS011;29046;54.184;18.680;2023-12-14T06:32:04;6.72;;;3.70;;
43457;SDS011;29046;54.184;18.680;2023-12-14T06:34:32;7.28;;;3.40;;
43457;SDS011;29046;54.184;18.680;2023-12-14T06:37:00;7.50;;;3.47;;
43457;SDS011;29046;54.184;18.680;2023-12-14T06:39:29;7.95;;;3.65;;
43457;SDS011;29046;54.184;18.680;2023-12-14T06:41:57;5.28;;;3.03;;
43457;SDS011;29046;54.184;18.680;2023-12-14T06:44:25;7.75;;;3.65;;
43457;SDS011;29046;54.184;18.680;2023-12-14T06:46:54;7.65;;;3.40;;
43457;SDS011;29046;54.184;18.680;2023-12-14T06:49:23;8.27;;;3.40;;
43457;SDS011;29046;54.184;18.680;2023-12-14T06:51:50;6.55;;;3.25;;
43457;SDS011;29046;54.184;18.680;2023-12-14T06:54:18;7.15;;;3.22;;
43457;SDS011;29046;54.184;18.680;2023-12-14T06:56:45;6.80;;;3.50;;
43457;SDS011;29046;54.184;18.680;2023-12-14T06:59:13;7.35;;;3.72;;
43457;SDS011;29046;54.184;18.680;2023-12-14T07:01:42;8.68;;;3.90;;
43457;SDS011;29046;54.184;18.680;2023-12-14T07:04:10;6.88;;;3.40;;
43457;SDS011;29046;54.184;18.680;2023-12-14T07:06:41;7.50;;;3.20;;
43457;SDS011;29046;54.184;18.680;2023-12-14T07:09:09;5.40;;;2.53;;
43457;SDS011;29046;54.184;18.680;2023-12-14T07:11:36;7.40;;;3.80;;
43457;SDS011;29046;54.184;18.680;2023-12-14T07:14:04;8.80;;;3.33;;
43457;SDS011;29046;54.184;18.680;2023-12-14T07:16:32;7.20;;;3.05;;
43457;SDS011;29046;54.184;18.680;2023-12-14T07:19:00;5.10;;;3.10;;
43457;SDS011;29046;54.184;18.680;2023-12-14T07:21:28;6.93;;;2.63;;
43457;SDS011;29046;54.184;18.680;2023-12-14T07:23:55;8.38;;;2.97;;
43457;SDS011;29046;54.184;18.680;2023-12-14T07:26:23;4.82;;;2.63;;
43457;SDS011;29046;54.184;18.680;2023-12-14T07:28:52;5.43;;;2.58;;
43457;SDS011;29046;54.184;18.680;2023-12-14T07:31:20;8.13;;;2.67;;
43457;SDS011;29046;54.184;18.680;2023-12-14T07:33:48;7.07;;;3.17;;
43457;SDS011;29046;54.184;18.680;2023-12-14T07:36:16;6.78;;;2.72;;
43457;SDS011;29046;54.184;18.680;2023-12-14T07:38:43;7.35;;;3.10;;
43457;SDS011;29046;54.184;18.680;2023-12-14T07:41:11;4.78;;;2.63;;
43457;SDS011;29046;54.184;18.680;2023-12-14T07:43:39;6.63;;;2.60;;
43457;SDS011;29046;54.184;18.680;2023-12-14T07:46:06;6.20;;;2.95;;
43457;SDS011;29046;54.184;18.680;2023-12-14T07:48:34;4.80;;;2.35;;
43457;SDS011;29046;54.184;18.680;2023-12-14T07:51:02;6.22;;;2.67;;
43457;SDS011;29046;54.184;18.680;2023-12-14T07:53:30;6.00;;;2.65;;
43457;SDS011;29046;54.184;18.680;2023-12-14T07:55:57;6.78;;;2.40;;
43457;SDS011;29046;54.184;18.680;2023-12-14T07:58:28;6.25;;;2.33;;
43457;SDS011;29046;54.184;18.680;2023-12-14T08:00:56;3.08;;;1.80;;
43457;SDS011;29046;54.184;18.680;2023-12-14T08:03:23;4.28;;;2.45;;
43457;SDS011;29046;54.184;18.680;2023-12-14T08:05:51;6.13;;;2.47;;
43457;SDS011;29046;54.184;18.680;2023-12-14T08:08:19;4.30;;;2.17;;
43457;SDS011;29046;54.184;18.680;2023-12-14T08:10:47;6.32;;;2.33;;
43457;SDS011;29046;54.184;18.680;2023-12-14T08:13:14;7.85;;;3.22;;
43457;SDS011;29046;54.184;18.680;2023-12-14T08:15:42;9.25;;;3.08;;
43457;SDS011;29046;54.184;18.680;2023-12-14T08:18:10;7.75;;;3.03;;
43457;SDS011;29046;54.184;18.680;2023-12-14T08:20:37;9.02;;;3.20;;
43457;SDS011;29046;54.184;18.680;2023-12-14T08:23:05;5.90;;;2.65;;
43457;SDS011;29046;54.184;18.680;2023-12-14T08:25:33;9.90;;;3.03;;
43457;SDS011;29046;54.184;18.680;2023-12-14T08:28:01;6.53;;;3.03;;
43457;SDS011;29046;54.184;18.680;2023-12-14T08:30:31;10.57;;;3.70;;
43457;SDS011;29046;54.184;18.680;2023-12-14T08:32:59;11.75;;;5.63;;
43457;SDS011;29046;54.184;18.680;2023-12-14T08:35:26;15.43;;;8.30;;
43457;SDS011;29046;54.184;18.680;2023-12-14T08:37:55;4.30;;;3.13;;
43457;SDS011;29046;54.184;18.680;2023-12-14T08:40:22;10.32;;;5.00;;
43457;SDS011;29046;54.184;18.680;2023-12-14T08:42:50;11.23;;;5.50;;
43457;SDS011;29046;54.184;18.680;2023-12-14T08:45:18;17.27;;;6.63;;
43457;SDS011;29046;54.184;18.680;2023-12-14T08:47:46;22.95;;;7.25;;
43457;SDS011;29046;54.184;18.680;2023-12-14T08:50:13;94.45;;;33.67;;
43457;SDS011;29046;54.184;18.680;2023-12-14T08:52:41;44.58;;;16.42;;
43457;SDS011;29046;54.184;18.680;2023-12-14T08:55:09;28.13;;;10.52;;
43457;SDS011;29046;54.184;18.680;2023-12-14T08:57:37;4.50;;;3.08;;
43457;SDS011;29046;54.184;18.680;2023-12-14T09:00:04;8.93;;;3.20;;
43457;SDS011;29046;54.184;18.680;2023-12-14T09:02:34;7.28;;;3.30;;
43457;SDS011;29046;54.184;18.680;2023-12-14T09:05:02;8.27;;;3.67;;
43457;SDS011;29046;54.184;18.680;2023-12-14T09:07:31;24.30;;;7.82;;
43457;SDS011;29046;54.184;18.680;2023-12-14T09:09:59;16.88;;;6.50;;
43457;SDS011;29046;54.184;18.680;2023-12-14T09:12:27;11.77;;;5.78;;
43457;SDS011;29046;54.184;18.680;2023-12-14T09:14:54;9.73;;;3.88;;
43457;SDS011;29046;54.184;18.680;2023-12-14T09:17:22;30.02;;;13.13;;
43457;SDS011;29046;54.184;18.680;2023-12-14T09:19:50;42.00;;;13.20;;
43457;SDS011;29046;54.184;18.680;2023-12-14T09:22:18;24.83;;;10.23;;
43457;SDS011;29046;54.184;18.680;2023-12-14T09:24:45;21.23;;;8.70;;
43457;SDS011;29046;54.184;18.680;2023-12-14T09:27:13;19.13;;;7.35;;
43457;SDS011;29046;54.184;18.680;2023-12-14T09:29:41;12.23;;;5.82;;
43457;SDS011;29046;54.184;18.680;2023-12-14T09:32:09;9.80;;;4.68;;
43457;SDS011;29046;54.184;18.680;2023-12-14T09:34:37;9.32;;;5.30;;
43457;SDS011;29046;54.184;18.680;2023-12-14T09:37:04;8.10;;;3.85;;
43457;SDS011;29046;54.184;18.680;2023-12-14T09:39:32;9.02;;;4.68;;
43457;SDS011;29046;54.184;18.680;2023-12-14T09:42:01;9.82;;;4.50;;
43457;SDS011;29046;54.184;18.680;2023-12-14T09:44:31;9.98;;;4.72;;
43457;SDS011;29046;54.184;18.680;2023-12-14T09:46:59;8.02;;;4.32;;
43457;SDS011;29046;54.184;18.680;2023-12-14T09:49:27;10.73;;;5.10;;
43457;SDS011;29046;54.184;18.680;2023-12-14T09:51:56;10.57;;;4.30;;
43457;SDS011;29046;54.184;18.680;2023-12-14T09:54:27;12.35;;;4.45;;
43457;SDS011;29046;54.184;18.680;2023-12-14T09:56:55;24.70;;;8.93;;
43457;SDS011;29046;54.184;18.680;2023-12-14T09:59:22;36.22;;;12.20;;
43457;SDS011;29046;54.184;18.680;2023-12-14T10:01:50;20.50;;;8.02;;
43457;SDS011;29046;54.184;18.680;2023-12-14T10:04:18;37.00;;;12.52;;
43457;SDS011;29046;54.184;18.680;2023-12-14T10:06:47;34.90;;;9.25;;
43457;SDS011;29046;54.184;18.680;2023-12-14T10:09:15;10.85;;;5.78;;
43457;SDS011;29046;54.184;18.680;2023-12-14T10:11:45;15.88;;;7.47;;
43457;SDS011;29046;54.184;18.680;2023-12-14T10:14:20;13.20;;;5.50;;
43457;SDS011;29046;54.184;18.680;2023-12-14T10:16:49;23.60;;;7.25;;
43457;SDS011;29046;54.184;18.680;2023-12-14T10:19:18;41.75;;;17.23;;
43457;SDS011;29046;54.184;18.680;2023-12-14T10:21:47;14.30;;;7.25;;
43457;SDS011;29046;54.184;18.680;2023-12-14T10:24:15;6.57;;;3.40;;
43457;SDS011;29046;54.184;18.680;2023-12-14T10:26:47;5.80;;;3.17;;
43457;SDS011;29046;54.184;18.680;2023-12-14T10:29:15;8.88;;;4.82;;
43457;SDS011;29046;54.184;18.680;2023-12-14T10:31:43;7.03;;;4.20;;
43457;SDS011;29046;54.184;18.680;2023-12-14T10:34:11;7.10;;;3.75;;
43457;SDS011;29046;54.184;18.680;2023-12-14T10:36:42;9.65;;;4.15;;
43457;SDS011;29046;54.184;18.680;2023-12-14T10:39:14;6.75;;;3.88;;
43457;SDS011;29046;54.184;18.680;2023-12-14T10:41:43;9.73;;;5.05;;
43457;SDS011;29046;54.184;18.680;2023-12-14T10:44:20;8.80;;;4.60;;
43457;SDS011;29046;54.184;18.680;2023-12-14T10:47:08;7.53;;;3.40;;
43457;SDS011;29046;54.184;18.680;2023-12-14T10:49:36;9.15;;;3.90;;
43457;SDS011;29046;54.184;18.680;2023-12-14T10:52:04;6.40;;;3.17;;
43457;SDS011;29046;54.184;18.680;2023-12-14T10:54:32;8.43;;;3.47;;
43457;SDS011;29046;54.184;18.680;2023-12-14T10:57:03;11.00;;;5.13;;
43457;SDS011;29046;54.184;18.680;2023-12-14T10:59:32;12.60;;;4.80;;
43457;SDS011;29046;54.184;18.680;2023-12-14T11:02:00;3.63;;;2.30;;
43457;SDS011;29046;54.184;18.680;2023-12-14T11:04:53;8.57;;;2.50;;
43457;SDS011;29046;54.184;18.680;2023-12-14T11:10:08;7.55;;;3.08;;
43457;SDS011;29046;54.184;18.680;2023-12-14T11:12:36;7.80;;;3.97;;
43457;SDS011;29046;54.184;18.680;2023-12-14T11:15:04;10.38;;;3.97;;
43457;SDS011;29046;54.184;18.680;2023-12-14T11:17:32;19.30;;;7.20;;
43457;SDS011;29046;54.184;18.680;2023-12-14T11:22:49;9.73;;;3.88;;
43457;SDS011;29046;54.184;18.680;2023-12-14T11:25:16;6.55;;;3.40;;
43457;SDS011;29046;54.184;18.680;2023-12-14T11:27:50;7.72;;;3.83;;
43457;SDS011;29046;54.184;18.680;2023-12-14T11:30:18;7.05;;;3.30;;
43457;SDS011;29046;54.184;18.680;2023-12-14T11:32:46;7.50;;;3.67;;
43457;SDS011;29046;54.184;18.680;2023-12-14T11:35:13;7.32;;;2.85;;
43457;SDS011;29046;54.184;18.680;2023-12-14T11:37:42;4.45;;;2.42;;
43457;SDS011;29046;54.184;18.680;2023-12-14T11:40:10;4.03;;;2.38;;
43457;SDS011;29046;54.184;18.680;2023-12-14T11:42:40;3.10;;;1.75;;
43457;SDS011;29046;54.184;18.680;2023-12-14T11:45:07;5.03;;;2.10;;
43457;SDS011;29046;54.184;18.680;2023-12-14T11:47:35;5.03;;;1.70;;
43457;SDS011;29046;54.184;18.680;2023-12-14T11:50:03;2.72;;;2.10;;
43457;SDS011;29046;54.184;18.680;2023-12-14T11:52:32;3.30;;;1.77;;
43457;SDS011;29046;54.184;18.680;2023-12-14T11:55:00;2.20;;;1.27;;
43457;SDS011;29046;54.184;18.680;2023-12-14T11:57:28;5.25;;;2.58;;
43457;SDS011;29046;54.184;18.680;2023-12-14T11:59:57;4.88;;;2.42;;
43457;SDS011;29046;54.184;18.680;2023-12-14T12:02:25;4.63;;;2.40;;
43457;SDS011;29046;54.184;18.680;2023-12-14T12:04:53;5.43;;;2.03;;
43457;SDS011;29046;54.184;18.680;2023-12-14T12:07:21;4.90;;;2.85;;
43457;SDS011;29046;54.184;18.680;2023-12-14T12:09:48;5.80;;;2.25;;
43457;SDS011;29046;54.184;18.680;2023-12-14T12:12:16;6.10;;;2.90;;
43457;SDS011;29046;54.184;18.680;2023-12-14T12:14:44;10.27;;;3.13;;
43457;SDS011;29046;54.184;18.680;2023-12-14T12:17:12;11.45;;;3.50;;
43457;SDS011;29046;54.184;18.680;2023-12-14T12:19:41;8.75;;;3.65;;
43457;SDS011;29046;54.184;18.680;2023-12-14T12:22:09;9.10;;;4.22;;
43457;SDS011;29046;54.184;18.680;2023-12-14T12:24:37;7.28;;;3.05;;
43457;SDS011;29046;54.184;18.680;2023-12-14T12:27:05;5.25;;;2.75;;
43457;SDS011;29046;54.184;18.680;2023-12-14T12:29:34;4.35;;;2.58;;
43457;SDS011;29046;54.184;18.680;2023-12-14T12:32:01;4.72;;;2.60;;
43457;SDS011;29046;54.184;18.680;2023-12-14T12:34:29;4.75;;;2.70;;
43457;SDS011;29046;54.184;18.680;2023-12-14T12:36:57;4.90;;;2.22;;
43457;SDS011;29046;54.184;18.680;2023-12-14T12:39:25;6.70;;;2.40;;
43457;SDS011;29046;54.184;18.680;2023-12-14T12:41:55;7.32;;;3.72;;
43457;SDS011;29046;54.184;18.680;2023-12-14T12:44:22;20.98;;;12.23;;
43457;SDS011;29046;54.184;18.680;2023-12-14T12:46:50;16.23;;;9.70;;
43457;SDS011;29046;54.184;18.680;2023-12-14T12:49:36;9.82;;;6.00;;
43457;SDS011;29046;54.184;18.680;2023-12-14T12:52:04;9.15;;;4.80;;
43457;SDS011;29046;54.184;18.680;2023-12-14T12:54:31;7.80;;;3.97;;
43457;SDS011;29046;54.184;18.680;2023-12-14T12:56:59;7.47;;;3.63;;
43457;SDS011;29046;54.184;18.680;2023-12-14T12:59:27;10.75;;;5.47;;
43457;SDS011;29046;54.184;18.680;2023-12-14T13:01:55;9.93;;;5.13;;
43457;SDS011;29046;54.184;18.680;2023-12-14T13:04:23;12.75;;;7.25;;
43457;SDS011;29046;54.184;18.680;2023-12-14T13:06:51;8.82;;;5.07;;
43457;SDS011;29046;54.184;18.680;2023-12-14T13:09:19;7.10;;;4.05;;
43457;SDS011;29046;54.184;18.680;2023-12-14T13:11:47;6.93;;;3.45;;
43457;SDS011;29046;54.184;18.680;2023-12-14T13:14:17;9.38;;;4.00;;
43457;SDS011;29046;54.184;18.680;2023-12-14T13:16:45;7.18;;;3.33;;
43457;SDS011;29046;54.184;18.680;2023-12-14T13:19:14;6.32;;;3.25;;
43457;SDS011;29046;54.184;18.680;2023-12-14T13:21:42;9.05;;;4.00;;
43457;SDS011;29046;54.184;18.680;2023-12-14T13:24:13;6.45;;;3.95;;
43457;SDS011;29046;54.184;18.680;2023-12-14T13:26:44;9.00;;;4.75;;
43457;SDS011;29046;54.184;18.680;2023-12-14T13:29:11;9.25;;;4.40;;
43457;SDS011;29046;54.184;18.680;2023-12-14T13:31:39;6.20;;;3.22;;
43457;SDS011;29046;54.184;18.680;2023-12-14T13:34:07;6.00;;;2.80;;
43457;SDS011;29046;54.184;18.680;2023-12-14T13:36:35;7.82;;;3.78;;
43457;SDS011;29046;54.184;18.680;2023-12-14T13:39:02;8.15;;;3.67;;
43457;SDS011;29046;54.184;18.680;2023-12-14T13:41:32;4.70;;;2.97;;
43457;SDS011;29046;54.184;18.680;2023-12-14T13:44:15;6.78;;;2.90;;
43457;SDS011;29046;54.184;18.680;2023-12-14T13:46:43;5.47;;;2.95;;
43457;SDS011;29046;54.184;18.680;2023-12-14T13:49:11;7.30;;;3.70;;
43457;SDS011;29046;54.184;18.680;2023-12-14T13:51:39;10.93;;;5.57;;
43457;SDS011;29046;54.184;18.680;2023-12-14T13:54:06;47.50;;;16.60;;
43457;SDS011;29046;54.184;18.680;2023-12-14T13:56:34;59.00;;;19.48;;
43457;SDS011;29046;54.184;18.680;2023-12-14T13:59:02;28.80;;;13.75;;
43457;SDS011;29046;54.184;18.680;2023-12-14T14:01:29;22.08;;;11.27;;
43457;SDS011;29046;54.184;18.680;2023-12-14T14:03:57;18.10;;;9.73;;
43457;SDS011;29046;54.184;18.680;2023-12-14T14:06:25;14.20;;;8.25;;
43457;SDS011;29046;54.184;18.680;2023-12-14T14:08:52;16.67;;;7.90;;
43457;SDS011;29046;54.184;18.680;2023-12-14T14:11:21;20.70;;;7.10;;
43457;SDS011;29046;54.184;18.680;2023-12-14T14:13:49;14.95;;;7.20;;
43457;SDS011;29046;54.184;18.680;2023-12-14T14:16:17;14.00;;;4.80;;
43457;SDS011;29046;54.184;18.680;2023-12-14T14:18:47;14.20;;;5.72;;
43457;SDS011;29046;54.184;18.680;2023-12-14T14:21:15;13.73;;;7.45;;
43457;SDS011;29046;54.184;18.680;2023-12-14T14:23:42;11.98;;;6.55;;
43457;SDS011;29046;54.184;18.680;2023-12-14T14:26:11;19.48;;;6.88;;
43457;SDS011;29046;54.184;18.680;2023-12-14T14:28:38;14.98;;;7.07;;
43457;SDS011;29046;54.184;18.680;2023-12-14T14:31:06;17.60;;;7.85;;
43457;SDS011;29046;54.184;18.680;2023-12-14T14:33:34;14.90;;;7.05;;
43457;SDS011;29046;54.184;18.680;2023-12-14T14:36:02;14.23;;;6.45;;
43457;SDS011;29046;54.184;18.680;2023-12-14T14:38:31;22.95;;;7.68;;
43457;SDS011;29046;54.184;18.680;2023-12-14T14:40:59;25.92;;;7.60;;